sensor_id;sensor_type;location;lat;lon;timestamp;pressure;altitude;pressure_sealevel;temperature;humidity
75629;BME280;64213;46.452;16.994;2023-02-11T00:01:27;102144.84;;;-4.59;82.99
75629;BME280;64213;46.452;16.994;2023-02-11T00:04:30;102146.31;;;-4.67;83.12
75629;BME280;64213;46.452;16.994;2023-02-11T00:07:34;102137.56;;;-4.72;83.65
75629;BME280;64213;46.452;16.994;2023-02-11T00:10:36;102142.63;;;-4.75;83.99
75629;BME280;64213;46.452;16.994;2023-02-11T00:13:39;102137.28;;;-4.80;84.19
75629;BME280;64213;46.452;16.994;2023-02-11T00:16:41;102138.03;;;-4.84;84.54
75629;BME280;64213;46.452;16.994;2023-02-11T00:19:48;102138.03;;;-4.84;84.59
75629;BME280;64213;46.452;16.994;2023-02-11T00:22:51;102134.50;;;-4.86;84.61
75629;BME280;64213;46.452;16.994;2023-02-11T00:25:53;102137.09;;;-4.86;84.84
75629;BME280;64213;46.452;16.994;2023-02-11T00:28:56;102129.13;;;-4.92;85.08
75629;BME280;64213;46.452;16.994;2023-02-11T00:31:58;102135.91;;;-4.96;84.91
75629;BME280;64213;46.452;16.994;2023-02-11T00:35:06;102137.47;;;-5.01;84.97
75629;BME280;64213;46.452;16.994;2023-02-11T00:38:08;102140.72;;;-5.06;85.13
75629;BME280;64213;46.452;16.994;2023-02-11T00:41:12;102136.22;;;-5.12;85.53
75629;BME280;64213;46.452;16.994;2023-02-11T00:44:15;102128.34;;;-5.17;85.49
75629;BME280;64213;46.452;16.994;2023-02-11T00:47:17;102131.72;;;-5.18;85.93
75629;BME280;64213;46.452;16.994;2023-02-11T00:50:20;102127.44;;;-5.17;86.30
75629;BME280;64213;46.452;16.994;2023-02-11T00:53:22;102122.38;;;-5.14;86.34
75629;BME280;64213;46.452;16.994;2023-02-11T00:56:25;102121.72;;;-5.08;86.45
75629;BME280;64213;46.452;16.994;2023-02-11T00:59:27;102119.97;;;-5.09;86.26
75629;BME280;64213;46.452;16.994;2023-02-11T01:02:30;102116.44;;;-5.13;86.03
75629;BME280;64213;46.452;16.994;2023-02-11T01:05:33;102122.47;;;-5.12;86.20
75629;BME280;64213;46.452;16.994;2023-02-11T01:08:36;102113.12;;;-5.09;86.12
75629;BME280;64213;46.452;16.994;2023-02-11T01:11:40;102116.66;;;-5.05;86.10
75629;BME280;64213;46.452;16.994;2023-02-11T01:14:43;102115.16;;;-4.99;85.84
75629;BME280;64213;46.452;16.994;2023-02-11T01:17:45;102105.97;;;-4.91;85.96
75629;BME280;64213;46.452;16.994;2023-02-11T01:20:49;102099.16;;;-4.88;86.01
75629;BME280;64213;46.452;16.994;2023-02-11T01:23:52;102089.97;;;-4.80;85.71
75629;BME280;64213;46.452;16.994;2023-02-11T01:26:54;102080.75;;;-4.72;85.00
75629;BME280;64213;46.452;16.994;2023-02-11T01:29:57;102074.22;;;-4.61;84.83
75629;BME280;64213;46.452;16.994;2023-02-11T01:32:59;102053.66;;;-4.58;84.65
75629;BME280;64213;46.452;16.994;2023-02-11T01:36:03;102067.03;;;-4.42;83.87
75629;BME280;64213;46.452;16.994;2023-02-11T01:39:06;102068.91;;;-4.37;83.89
75629;BME280;64213;46.452;16.994;2023-02-11T01:42:21;102070.06;;;-4.27;83.39
75629;BME280;64213;46.452;16.994;2023-02-11T01:48:52;102052.47;;;-4.10;83.09
75629;BME280;64213;46.452;16.994;2023-02-11T01:52:07;102048.94;;;-4.12;82.72
75629;BME280;64213;46.452;16.994;2023-02-11T01:55:12;102040.31;;;-4.13;82.78
75629;BME280;64213;46.452;16.994;2023-02-11T01:58:35;102047.91;;;-4.19;82.94
75629;BME280;64213;46.452;16.994;2023-02-11T02:01:45;102038.97;;;-4.30;82.97
75629;BME280;64213;46.452;16.994;2023-02-11T02:04:54;102029.44;;;-4.31;83.29
75629;BME280;64213;46.452;16.994;2023-02-11T02:08:18;102010.31;;;-4.38;83.25
75629;BME280;64213;46.452;16.994;2023-02-11T02:11:22;102017.41;;;-4.31;83.27
75629;BME280;64213;46.452;16.994;2023-02-11T02:14:25;102016.63;;;-4.28;83.31
75629;BME280;64213;46.452;16.994;2023-02-11T02:17:37;102009.72;;;-4.29;83.05
75629;BME280;64213;46.452;16.994;2023-02-11T02:20:56;102008.84;;;-4.30;83.10
75629;BME280;64213;46.452;16.994;2023-02-11T02:24:37;102016.44;;;-4.34;83.23
75629;BME280;64213;46.452;16.994;2023-02-11T02:31:25;101998.25;;;-4.39;83.15
75629;BME280;64213;46.452;16.994;2023-02-11T02:34:41;102008.63;;;-4.37;83.70
75629;BME280;64213;46.452;16.994;2023-02-11T02:41:08;102002.38;;;-4.46;83.71
75629;BME280;64213;46.452;16.994;2023-02-11T02:44:11;102003.84;;;-4.54;83.45
75629;BME280;64213;46.452;16.994;2023-02-11T02:47:13;102005.44;;;-4.59;83.86
75629;BME280;64213;46.452;16.994;2023-02-11T02:50:20;102000.97;;;-4.63;84.29
75629;BME280;64213;46.452;16.994;2023-02-11T03:10:29;101996.06;;;-4.84;85.58
75629;BME280;64213;46.452;16.994;2023-02-11T03:13:35;101995.22;;;-4.83;86.03
75629;BME280;64213;46.452;16.994;2023-02-11T03:16:38;101998.94;;;-4.75;86.27
75629;BME280;64213;46.452;16.994;2023-02-11T03:19:43;101991.59;;;-4.89;85.80
75629;BME280;64213;46.452;16.994;2023-02-11T03:29:09;101996.06;;;-5.11;86.40
75629;BME280;64213;46.452;16.994;2023-02-11T03:36:23;101999.31;;;-5.18;87.72
75629;BME280;64213;46.452;16.994;2023-02-11T03:39:23;101988.03;;;-5.20;87.85
75629;BME280;64213;46.452;16.994;2023-02-11T03:42:33;101994.09;;;-5.20;87.68
75629;BME280;64213;46.452;16.994;2023-02-11T03:45:38;101992.09;;;-5.28;87.66
75629;BME280;64213;46.452;16.994;2023-02-11T03:48:44;101991.00;;;-5.08;88.57
75629;BME280;64213;46.452;16.994;2023-02-11T03:51:50;101989.72;;;-5.22;87.50
75629;BME280;64213;46.452;16.994;2023-02-11T03:54:56;101988.66;;;-5.29;87.67
75629;BME280;64213;46.452;16.994;2023-02-11T03:58:01;101980.75;;;-5.33;87.87
75629;BME280;64213;46.452;16.994;2023-02-11T04:01:03;101979.78;;;-5.37;87.94
75629;BME280;64213;46.452;16.994;2023-02-11T04:04:07;101972.41;;;-5.26;88.78
75629;BME280;64213;46.452;16.994;2023-02-11T04:07:11;101968.87;;;-5.28;88.30
75629;BME280;64213;46.452;16.994;2023-02-11T04:10:13;101965.19;;;-5.09;88.86
75629;BME280;64213;46.452;16.994;2023-02-11T04:13:16;101957.66;;;-5.02;88.50
75629;BME280;64213;46.452;16.994;2023-02-11T04:16:18;101950.22;;;-4.93;88.02
75629;BME280;64213;46.452;16.994;2023-02-11T04:19:21;101946.16;;;-4.84;87.45
75629;BME280;64213;46.452;16.994;2023-02-11T04:22:23;101943.66;;;-4.81;86.70
75629;BME280;64213;46.452;16.994;2023-02-11T04:25:25;101936.09;;;-4.75;86.46
75629;BME280;64213;46.452;16.994;2023-02-11T04:28:28;101932.03;;;-4.67;86.11
75629;BME280;64213;46.452;16.994;2023-02-11T04:31:31;101927.00;;;-4.62;85.63
75629;BME280;64213;46.452;16.994;2023-02-11T04:34:33;101935.75;;;-4.57;85.50
75629;BME280;64213;46.452;16.994;2023-02-11T04:37:36;101938.56;;;-4.50;85.21
75629;BME280;64213;46.452;16.994;2023-02-11T04:40:38;101930.91;;;-4.47;85.11
75629;BME280;64213;46.452;16.994;2023-02-11T04:43:41;101927.41;;;-4.47;84.87
75629;BME280;64213;46.452;16.994;2023-02-11T04:46:43;101923.00;;;-4.51;85.03
75629;BME280;64213;46.452;16.994;2023-02-11T04:49:46;101922.06;;;-4.53;85.07
75629;BME280;64213;46.452;16.994;2023-02-11T04:52:49;101923.59;;;-4.61;85.17
75629;BME280;64213;46.452;16.994;2023-02-11T04:55:51;101930.22;;;-4.70;85.38
75629;BME280;64213;46.452;16.994;2023-02-11T04:58:53;101919.91;;;-4.70;86.00
75629;BME280;64213;46.452;16.994;2023-02-11T05:01:56;101924.25;;;-4.69;85.89
75629;BME280;64213;46.452;16.994;2023-02-11T05:04:58;101918.16;;;-4.71;85.78
75629;BME280;64213;46.452;16.994;2023-02-11T05:08:01;101905.13;;;-4.75;85.90
75629;BME280;64213;46.452;16.994;2023-02-11T05:11:03;101899.06;;;-4.76;86.33
75629;BME280;64213;46.452;16.994;2023-02-11T05:14:06;101896.53;;;-4.74;85.95
75629;BME280;64213;46.452;16.994;2023-02-11T05:17:08;101895.59;;;-4.78;85.86
75629;BME280;64213;46.452;16.994;2023-02-11T05:20:11;101894.72;;;-4.78;85.98
75629;BME280;64213;46.452;16.994;2023-02-11T05:23:13;101893.00;;;-4.78;86.55
75629;BME280;64213;46.452;16.994;2023-02-11T05:26:16;101892.06;;;-4.81;86.34
75629;BME280;64213;46.452;16.994;2023-02-11T05:29:19;101891.22;;;-4.80;86.81
75629;BME280;64213;46.452;16.994;2023-02-11T05:32:21;101892.78;;;-4.85;86.55
75629;BME280;64213;46.452;16.994;2023-02-11T05:35:23;101892.59;;;-4.92;86.33
75629;BME280;64213;46.452;16.994;2023-02-11T05:38:26;101888.19;;;-4.96;86.87
75629;BME280;64213;46.452;16.994;2023-02-11T05:41:29;101881.19;;;-5.00;86.80
75629;BME280;64213;46.452;16.994;2023-02-11T05:44:31;101890.50;;;-5.05;86.66
75629;BME280;64213;46.452;16.994;2023-02-11T05:47:34;101892.78;;;-5.14;86.56
75629;BME280;64213;46.452;16.994;2023-02-11T05:50:36;101899.47;;;-5.21;86.36
75629;BME280;64213;46.452;16.994;2023-02-11T05:53:38;101896.78;;;-5.25;86.69
75629;BME280;64213;46.452;16.994;2023-02-11T05:56:41;101904.44;;;-5.27;86.12
75629;BME280;64213;46.452;16.994;2023-02-11T05:59:45;101910.34;;;-5.31;85.92
75629;BME280;64213;46.452;16.994;2023-02-11T06:02:48;101901.69;;;-5.33;85.92
75629;BME280;64213;46.452;16.994;2023-02-11T06:05:50;101906.75;;;-5.36;86.09
75629;BME280;64213;46.452;16.994;2023-02-11T06:08:53;101907.09;;;-5.25;86.43
75629;BME280;64213;46.452;16.994;2023-02-11T06:11:55;101910.53;;;-5.25;85.96
75629;BME280;64213;46.452;16.994;2023-02-11T06:14:58;101917.41;;;-5.25;85.58
75629;BME280;64213;46.452;16.994;2023-02-11T06:18:00;101902.03;;;-5.22;85.54
75629;BME280;64213;46.452;16.994;2023-02-11T06:21:06;101905.56;;;-5.19;86.05
75629;BME280;64213;46.452;16.994;2023-02-11T06:24:09;101915.03;;;-5.18;86.04
75629;BME280;64213;46.452;16.994;2023-02-11T06:27:11;101915.91;;;-5.17;85.76
75629;BME280;64213;46.452;16.994;2023-02-11T06:30:14;101914.94;;;-5.21;85.47
75629;BME280;64213;46.452;16.994;2023-02-11T06:33:16;101909.78;;;-5.21;85.46
75629;BME280;64213;46.452;16.994;2023-02-11T06:36:20;101907.28;;;-5.19;85.61
75629;BME280;64213;46.452;16.994;2023-02-11T06:39:23;101902.03;;;-5.22;85.38
75629;BME280;64213;46.452;16.994;2023-02-11T06:42:26;101890.09;;;-5.19;85.83
75629;BME280;64213;46.452;16.994;2023-02-11T06:45:28;101888.66;;;-5.09;85.41
75629;BME280;64213;46.452;16.994;2023-02-11T06:48:32;101892.50;;;-4.95;85.39
75629;BME280;64213;46.452;16.994;2023-02-11T06:51:34;101893.50;;;-4.91;84.61
75629;BME280;64213;46.452;16.994;2023-02-11T06:54:37;101902.13;;;-4.89;84.81
75629;BME280;64213;46.452;16.994;2023-02-11T06:57:39;101894.37;;;-4.91;84.58
75629;BME280;64213;46.452;16.994;2023-02-11T07:00:42;101910.66;;;-4.92;84.44
75629;BME280;64213;46.452;16.994;2023-02-11T07:03:44;101915.22;;;-4.83;84.64
75629;BME280;64213;46.452;16.994;2023-02-11T07:06:47;101911.00;;;-4.81;84.39
75629;BME280;64213;46.452;16.994;2023-02-11T07:09:50;101908.50;;;-4.78;84.22
75629;BME280;64213;46.452;16.994;2023-02-11T07:12:52;101908.63;;;-4.73;84.35
75629;BME280;64213;46.452;16.994;2023-02-11T07:15:56;101887.97;;;-4.73;84.10
75629;BME280;64213;46.452;16.994;2023-02-11T07:18:59;101905.63;;;-4.57;84.07
75629;BME280;64213;46.452;16.994;2023-02-11T07:22:02;101901.66;;;-4.44;83.89
75629;BME280;64213;46.452;16.994;2023-02-11T07:25:04;101908.91;;;-4.31;83.40
75629;BME280;64213;46.452;16.994;2023-02-11T07:28:07;101901.72;;;-4.11;82.74
75629;BME280;64213;46.452;16.994;2023-02-11T07:31:13;101901.41;;;-3.88;81.61
75629;BME280;64213;46.452;16.994;2023-02-11T07:34:16;101891.19;;;-3.47;80.98
75629;BME280;64213;46.452;16.994;2023-02-11T07:37:18;101882.44;;;-2.74;78.28
75629;BME280;64213;46.452;16.994;2023-02-11T07:40:21;101873.69;;;-2.79;77.80
75629;BME280;64213;46.452;16.994;2023-02-11T07:43:23;101882.06;;;-2.92;77.75
75629;BME280;64213;46.452;16.994;2023-02-11T07:46:26;101887.22;;;-2.92;77.75
75629;BME280;64213;46.452;16.994;2023-02-11T07:49:29;101896.00;;;-2.84;77.67
75629;BME280;64213;46.452;16.994;2023-02-11T07:52:31;101893.56;;;-2.34;77.24
75629;BME280;64213;46.452;16.994;2023-02-11T07:55:34;101883.91;;;-1.38;74.07
75629;BME280;64213;46.452;16.994;2023-02-11T07:58:36;101894.81;;;-1.01;71.52
75629;BME280;64213;46.452;16.994;2023-02-11T08:01:39;101881.34;;;-0.73;70.48
75629;BME280;64213;46.452;16.994;2023-02-11T08:04:41;101881.75;;;-0.33;70.32
75629;BME280;64213;46.452;16.994;2023-02-11T08:07:44;101887.50;;;0.24;69.16
75629;BME280;64213;46.452;16.994;2023-02-11T08:10:46;101890.34;;;0.56;68.00
75629;BME280;64213;46.452;16.994;2023-02-11T08:13:49;101891.00;;;0.26;68.96
75629;BME280;64213;46.452;16.994;2023-02-11T08:16:51;101885.78;;;0.28;68.41
75629;BME280;64213;46.452;16.994;2023-02-11T08:19:54;101882.00;;;-0.08;69.06
75629;BME280;64213;46.452;16.994;2023-02-11T08:22:56;101890.75;;;-0.03;68.77
75629;BME280;64213;46.452;16.994;2023-02-11T08:26:03;101885.22;;;0.73;67.30
75629;BME280;64213;46.452;16.994;2023-02-11T08:29:09;101886.00;;;0.55;66.93
75629;BME280;64213;46.452;16.994;2023-02-11T08:32:12;101882.28;;;0.22;67.73
75629;BME280;64213;46.452;16.994;2023-02-11T08:35:14;101881.16;;;-0.07;68.72
75629;BME280;64213;46.452;16.994;2023-02-11T08:38:17;101891.22;;;-0.41;68.61
75629;BME280;64213;46.452;16.994;2023-02-11T08:41:19;101886.84;;;-0.42;69.64
75629;BME280;64213;46.452;16.994;2023-02-11T08:44:23;101884.84;;;-0.67;70.54
75629;BME280;64213;46.452;16.994;2023-02-11T08:47:25;101880.50;;;-0.68;70.27
75629;BME280;64213;46.452;16.994;2023-02-11T08:50:28;101873.38;;;-0.85;70.43
75629;BME280;64213;46.452;16.994;2023-02-11T08:53:31;101883.06;;;-0.73;70.75
75629;BME280;64213;46.452;16.994;2023-02-11T08:56:33;101879.56;;;-0.74;70.67
75629;BME280;64213;46.452;16.994;2023-02-11T08:59:36;101873.53;;;-0.71;70.80
75629;BME280;64213;46.452;16.994;2023-02-11T09:02:41;101863.19;;;-0.69;70.81
75629;BME280;64213;46.452;16.994;2023-02-11T09:05:46;101875.53;;;-0.50;70.58
75629;BME280;64213;46.452;16.994;2023-02-11T09:08:51;101876.59;;;-0.30;70.19
75629;BME280;64213;46.452;16.994;2023-02-11T09:11:54;101867.97;;;-0.27;70.25
75629;BME280;64213;46.452;16.994;2023-02-11T09:14:58;101871.59;;;-0.07;69.80
75629;BME280;64213;46.452;16.994;2023-02-11T09:18:01;101859.63;;;0.12;69.91
75629;BME280;64213;46.452;16.994;2023-02-11T09:21:06;101849.19;;;0.08;69.81
75629;BME280;64213;46.452;16.994;2023-02-11T09:24:10;101852.75;;;0.17;69.89
75629;BME280;64213;46.452;16.994;2023-02-11T09:27:12;101865.94;;;0.39;69.96
75629;BME280;64213;46.452;16.994;2023-02-11T09:30:15;101862.62;;;0.64;69.41
75629;BME280;64213;46.452;16.994;2023-02-11T09:33:17;101867.03;;;0.75;69.17
75629;BME280;64213;46.452;16.994;2023-02-11T09:36:21;101863.72;;;1.14;68.44
75629;BME280;64213;46.452;16.994;2023-02-11T09:39:24;101866.53;;;1.83;66.58
75629;BME280;64213;46.452;16.994;2023-02-11T09:43:03;101860.47;;;2.10;65.75
75629;BME280;64213;46.452;16.994;2023-02-11T09:46:14;101853.44;;;2.64;63.96
75629;BME280;64213;46.452;16.994;2023-02-11T09:49:21;101864.72;;;2.77;63.03
75629;BME280;64213;46.452;16.994;2023-02-11T09:52:45;101847.19;;;3.11;61.79
75629;BME280;64213;46.452;16.994;2023-02-11T09:56:00;101853.22;;;3.29;60.22
75629;BME280;64213;46.452;16.994;2023-02-11T09:59:03;101852.97;;;3.73;58.61
75629;BME280;64213;46.452;16.994;2023-02-11T10:02:16;101852.12;;;3.71;58.22
75629;BME280;64213;46.452;16.994;2023-02-11T10:05:42;101856.69;;;3.34;58.95
75629;BME280;64213;46.452;16.994;2023-02-11T10:20:00;101818.34;;;3.28;57.96
75629;BME280;64213;46.452;16.994;2023-02-11T10:23:32;101806.91;;;3.49;56.55
75629;BME280;64213;46.452;16.994;2023-02-11T10:26:32;101800.75;;;3.58;56.67
75629;BME280;64213;46.452;16.994;2023-02-11T10:29:38;101798.09;;;3.64;55.46
75629;BME280;64213;46.452;16.994;2023-02-11T10:32:46;101794.72;;;3.46;55.48
75629;BME280;64213;46.452;16.994;2023-02-11T10:35:50;101779.78;;;3.62;54.93
75629;BME280;64213;46.452;16.994;2023-02-11T10:38:53;101776.28;;;3.65;54.82
75629;BME280;64213;46.452;16.994;2023-02-11T10:41:59;101777.91;;;3.78;54.66
75629;BME280;64213;46.452;16.994;2023-02-11T10:45:04;101766.88;;;4.38;53.54
75629;BME280;64213;46.452;16.994;2023-02-11T10:48:40;101760.28;;;4.80;51.82
75629;BME280;64213;46.452;16.994;2023-02-11T10:51:44;101755.03;;;4.80;51.06
75629;BME280;64213;46.452;16.994;2023-02-11T10:58:05;101764.72;;;5.39;49.57
75629;BME280;64213;46.452;16.994;2023-02-11T11:01:08;101746.81;;;5.64;48.85
75629;BME280;64213;46.452;16.994;2023-02-11T11:07:29;101720.50;;;5.14;49.37
75629;BME280;64213;46.452;16.994;2023-02-11T11:10:40;101716.06;;;5.16;49.59
75629;BME280;64213;46.452;16.994;2023-02-11T11:16:55;101696.69;;;4.64;49.70
75629;BME280;64213;46.452;16.994;2023-02-11T11:20:27;101686.91;;;4.79;49.27
75629;BME280;64213;46.452;16.994;2023-02-11T11:23:30;101694.66;;;5.42;48.51
75629;BME280;64213;46.452;16.994;2023-02-11T11:26:42;101693.00;;;5.40;48.38
75629;BME280;64213;46.452;16.994;2023-02-11T11:29:48;101687.66;;;5.46;47.88
75629;BME280;64213;46.452;16.994;2023-02-11T11:32:51;101689.34;;;5.99;46.40
75629;BME280;64213;46.452;16.994;2023-02-11T11:39:19;101686.63;;;6.49;44.76
75629;BME280;64213;46.452;16.994;2023-02-11T11:42:29;101680.84;;;5.83;46.58
75629;BME280;64213;46.452;16.994;2023-02-11T11:45:31;101680.22;;;5.69;46.13
75629;BME280;64213;46.452;16.994;2023-02-11T11:48:37;101670.16;;;5.96;44.96
75629;BME280;64213;46.452;16.994;2023-02-11T11:51:41;101685.91;;;6.41;45.15
75629;BME280;64213;46.452;16.994;2023-02-11T11:54:54;101681.72;;;6.74;43.69
75629;BME280;64213;46.452;16.994;2023-02-11T11:57:57;101680.38;;;6.95;43.49
75629;BME280;64213;46.452;16.994;2023-02-11T12:04:52;101659.72;;;8.49;40.40
75629;BME280;64213;46.452;16.994;2023-02-11T12:08:16;101653.84;;;8.97;39.44
75629;BME280;64213;46.452;16.994;2023-02-11T12:15:20;101644.25;;;7.73;41.86
75629;BME280;64213;46.452;16.994;2023-02-11T12:19:05;101654.75;;;7.40;42.11
75629;BME280;64213;46.452;16.994;2023-02-11T12:22:39;101647.00;;;7.33;42.62
75629;BME280;64213;46.452;16.994;2023-02-11T12:26:17;101629.38;;;7.01;43.29
75629;BME280;64213;46.452;16.994;2023-02-11T12:32:56;101615.66;;;7.23;43.73
75629;BME280;64213;46.452;16.994;2023-02-11T12:56:36;101565.19;;;7.42;43.33
75629;BME280;64213;46.452;16.994;2023-02-11T13:00:06;101563.47;;;7.41;43.05
75629;BME280;64213;46.452;16.994;2023-02-11T13:06:51;101557.31;;;8.04;41.52
75629;BME280;64213;46.452;16.994;2023-02-11T13:13:29;101544.47;;;9.06;38.83
75629;BME280;64213;46.452;16.994;2023-02-11T13:16:35;101540.47;;;9.46;38.25
75629;BME280;64213;46.452;16.994;2023-02-11T13:19:49;101542.75;;;9.80;38.51
75629;BME280;64213;46.452;16.994;2023-02-11T13:23:12;101532.16;;;9.06;39.25
75629;BME280;64213;46.452;16.994;2023-02-11T13:33:17;101520.03;;;8.46;41.07
75629;BME280;64213;46.452;16.994;2023-02-11T13:36:25;101506.38;;;8.61;40.07
75629;BME280;64213;46.452;16.994;2023-02-11T13:39:29;101498.66;;;8.82;39.90
75629;BME280;64213;46.452;16.994;2023-02-11T13:42:33;101508.75;;;9.21;39.21
75629;BME280;64213;46.452;16.994;2023-02-11T13:45:50;101498.00;;;9.27;38.40
75629;BME280;64213;46.452;16.994;2023-02-11T13:48:54;101494.81;;;9.17;38.21
75629;BME280;64213;46.452;16.994;2023-02-11T13:51:58;101497.03;;;8.22;40.29
75629;BME280;64213;46.452;16.994;2023-02-11T13:55:19;101502.50;;;7.56;40.13
75629;BME280;64213;46.452;16.994;2023-02-11T14:02:00;101501.37;;;6.99;42.03
75629;BME280;64213;46.452;16.994;2023-02-11T14:05:31;101510.00;;;6.70;42.15
75629;BME280;64213;46.452;16.994;2023-02-11T14:12:21;101495.66;;;6.46;43.42
75629;BME280;64213;46.452;16.994;2023-02-11T14:15:26;101497.38;;;6.10;44.09
75629;BME280;64213;46.452;16.994;2023-02-11T14:21:51;101500.44;;;5.89;45.06
75629;BME280;64213;46.452;16.994;2023-02-11T14:24:59;101498.63;;;5.94;45.21
75629;BME280;64213;46.452;16.994;2023-02-11T14:28:17;101500.34;;;5.93;45.22
75629;BME280;64213;46.452;16.994;2023-02-11T14:41:45;101495.13;;;5.48;46.34
75629;BME280;64213;46.452;16.994;2023-02-11T14:44:52;101487.87;;;5.61;46.41
75629;BME280;64213;46.452;16.994;2023-02-11T14:48:03;101479.25;;;5.56;46.59
75629;BME280;64213;46.452;16.994;2023-02-11T14:51:19;101476.88;;;5.42;46.61
75629;BME280;64213;46.452;16.994;2023-02-11T14:54:26;101480.50;;;5.35;46.68
75629;BME280;64213;46.452;16.994;2023-02-11T14:57:30;101468.25;;;5.37;47.09
75629;BME280;64213;46.452;16.994;2023-02-11T15:00:33;101481.53;;;5.28;46.96
75629;BME280;64213;46.452;16.994;2023-02-11T15:03:41;101484.09;;;5.29;46.87
75629;BME280;64213;46.452;16.994;2023-02-11T15:06:46;101479.06;;;5.20;47.13
75629;BME280;64213;46.452;16.994;2023-02-11T15:09:53;101478.00;;;5.29;47.35
75629;BME280;64213;46.452;16.994;2023-02-11T15:12:57;101471.25;;;5.17;47.38
75629;BME280;64213;46.452;16.994;2023-02-11T15:16:06;101485.19;;;5.19;47.61
75629;BME280;64213;46.452;16.994;2023-02-11T15:22:39;101504.78;;;5.00;49.00
75629;BME280;64213;46.452;16.994;2023-02-11T15:25:46;101494.59;;;4.81;49.91
75629;BME280;64213;46.452;16.994;2023-02-11T15:29:00;101501.63;;;4.79;50.65
75629;BME280;64213;46.452;16.994;2023-02-11T15:32:13;101497.31;;;4.75;51.25
75629;BME280;64213;46.452;16.994;2023-02-11T15:35:19;101503.50;;;4.71;50.91
75629;BME280;64213;46.452;16.994;2023-02-11T15:38:23;101511.56;;;4.59;51.41
75629;BME280;64213;46.452;16.994;2023-02-11T15:41:36;101503.75;;;4.56;52.01
75629;BME280;64213;46.452;16.994;2023-02-11T15:44:40;101490.06;;;4.38;52.52
75629;BME280;64213;46.452;16.994;2023-02-11T15:47:50;101484.91;;;4.32;52.96
75629;BME280;64213;46.452;16.994;2023-02-11T15:50:57;101472.84;;;4.22;53.25
75629;BME280;64213;46.452;16.994;2023-02-11T15:54:17;101461.50;;;4.22;53.25
75629;BME280;64213;46.452;16.994;2023-02-11T15:57:23;101483.28;;;4.24;53.20
75629;BME280;64213;46.452;16.994;2023-02-11T16:00:47;101481.56;;;4.21;53.09
75629;BME280;64213;46.452;16.994;2023-02-11T16:03:51;101469.41;;;4.17;53.49
75629;BME280;64213;46.452;16.994;2023-02-11T16:06:55;101464.31;;;4.08;53.51
75629;BME280;64213;46.452;16.994;2023-02-11T16:09:59;101461.72;;;4.06;53.60
75629;BME280;64213;46.452;16.994;2023-02-11T16:16:19;101454.84;;;3.99;53.04
75629;BME280;64213;46.452;16.994;2023-02-11T16:19:26;101445.31;;;3.93;53.26
75629;BME280;64213;46.452;16.994;2023-02-11T16:22:32;101458.41;;;3.93;53.35
75629;BME280;64213;46.452;16.994;2023-02-11T16:25:41;101470.63;;;3.91;53.26
75629;BME280;64213;46.452;16.994;2023-02-11T16:28:48;101456.81;;;3.83;53.39
75629;BME280;64213;46.452;16.994;2023-02-11T16:32:08;101449.12;;;3.71;53.42
75629;BME280;64213;46.452;16.994;2023-02-11T16:35:16;101453.59;;;3.60;53.93
75629;BME280;64213;46.452;16.994;2023-02-11T16:38:19;101449.38;;;3.49;54.41
75629;BME280;64213;46.452;16.994;2023-02-11T16:41:24;101445.97;;;3.41;54.88
75629;BME280;64213;46.452;16.994;2023-02-11T16:44:28;101439.94;;;3.36;55.28
75629;BME280;64213;46.452;16.994;2023-02-11T16:47:33;101434.84;;;3.25;56.13
75629;BME280;64213;46.452;16.994;2023-02-11T16:50:43;101439.31;;;3.14;55.92
75629;BME280;64213;46.452;16.994;2023-02-11T16:53:47;101435.84;;;3.14;56.29
75629;BME280;64213;46.452;16.994;2023-02-11T16:56:51;101439.41;;;3.10;56.29
75629;BME280;64213;46.452;16.994;2023-02-11T16:59:55;101436.75;;;3.11;56.35
75629;BME280;64213;46.452;16.994;2023-02-11T17:02:58;101432.50;;;2.99;56.59
75629;BME280;64213;46.452;16.994;2023-02-11T17:06:02;101462.06;;;3.06;56.91
75629;BME280;64213;46.452;16.994;2023-02-11T17:09:35;101456.00;;;3.02;56.75
75629;BME280;64213;46.452;16.994;2023-02-11T17:12:39;101458.59;;;3.02;57.23
75629;BME280;64213;46.452;16.994;2023-02-11T17:15:43;101450.78;;;3.02;57.35
75629;BME280;64213;46.452;16.994;2023-02-11T17:18:48;101445.59;;;2.98;57.50
75629;BME280;64213;46.452;16.994;2023-02-11T17:21:52;101407.53;;;2.71;57.81
75629;BME280;64213;46.452;16.994;2023-02-11T17:24:56;101441.41;;;2.80;58.27
75629;BME280;64213;46.452;16.994;2023-02-11T17:28:00;101450.13;;;2.79;58.57
75629;BME280;64213;46.452;16.994;2023-02-11T17:31:08;101456.22;;;2.81;58.70
75629;BME280;64213;46.452;16.994;2023-02-11T17:34:13;101451.88;;;2.82;58.68
75629;BME280;64213;46.452;16.994;2023-02-11T17:37:17;101455.34;;;2.82;58.66
75629;BME280;64213;46.452;16.994;2023-02-11T17:40:20;101451.84;;;2.83;58.94
75629;BME280;64213;46.452;16.994;2023-02-11T17:43:26;101454.44;;;2.85;58.96
75629;BME280;64213;46.452;16.994;2023-02-11T17:46:30;101455.34;;;2.82;58.91
75629;BME280;64213;46.452;16.994;2023-02-11T17:49:34;101457.03;;;2.86;59.64
75629;BME280;64213;46.452;16.994;2023-02-11T17:52:38;101451.81;;;2.86;59.41
75629;BME280;64213;46.452;16.994;2023-02-11T17:55:43;101451.88;;;2.82;59.57
75629;BME280;64213;46.452;16.994;2023-02-11T17:58:48;101451.88;;;2.82;60.29
75629;BME280;64213;46.452;16.994;2023-02-11T18:01:53;101439.69;;;2.79;59.84
75629;BME280;64213;46.452;16.994;2023-02-11T18:04:56;101445.75;;;2.83;60.11
75629;BME280;64213;46.452;16.994;2023-02-11T18:08:05;101444.88;;;2.80;60.02
75629;BME280;64213;46.452;16.994;2023-02-11T18:11:10;101451.88;;;2.82;60.42
75629;BME280;64213;46.452;16.994;2023-02-11T18:14:15;101451.03;;;2.78;61.08
75629;BME280;64213;46.452;16.994;2023-02-11T18:17:21;101450.09;;;2.80;60.90
75629;BME280;64213;46.452;16.994;2023-02-11T18:20:25;101446.66;;;2.77;60.46
75629;BME280;64213;46.452;16.994;2023-02-11T18:23:29;101451.03;;;2.76;60.77